createdAt,value
2023-03-27T00:00:16.507Z,0.97
2023-03-27T00:02:46.907Z,1.10
2023-03-27T00:05:16.239Z,1.30
2023-03-27T00:07:44.550Z,0.90
2023-03-27T00:10:13.227Z,1.07
2023-03-27T00:12:44.133Z,1.20
2023-03-27T00:15:17.128Z,1.20
2023-03-27T00:17:47.640Z,0.90
2023-03-27T00:20:16.532Z,1.27
2023-03-27T00:22:44.912Z,1.00
2023-03-27T00:25:12.968Z,1.10
2023-03-27T00:27:42.351Z,1.03
2023-03-27T00:30:11.354Z,0.83
2023-03-27T00:32:39.410Z,0.70
2023-03-27T00:35:09.276Z,0.80
2023-03-27T00:37:37.684Z,1.23
2023-03-27T00:40:08.080Z,0.97
2023-03-27T00:42:37.235Z,1.00
2023-03-27T00:45:10.610Z,0.80
2023-03-27T00:47:40.706Z,1.00
2023-03-27T00:50:13.659Z,1.10
2023-03-27T00:52:47.904Z,0.90
2023-03-27T00:55:17.956Z,1.13
2023-03-27T00:57:50.157Z,1.00
2023-03-27T01:00:44.644Z,1.20
2023-03-27T01:03:12.976Z,0.97
2023-03-27T01:05:41.439Z,0.90
2023-03-27T01:08:11.645Z,1.10
2023-03-27T01:10:50.783Z,1.10
2023-03-27T01:13:32.385Z,1.17
2023-03-27T01:16:07.432Z,0.90
2023-03-27T01:18:47.357Z,0.70
2023-03-27T01:21:46.859Z,1.20
2023-03-27T01:24:48.506Z,0.90
2023-03-27T01:27:20.554Z,0.87
2023-03-27T01:30:10.038Z,1.10
2023-03-27T01:33:26.524Z,1.20
2023-03-27T01:36:40.192Z,1.40
2023-03-27T01:39:29.204Z,1.47
2023-03-27T01:42:04.948Z,1.17
2023-03-27T01:44:43.840Z,1.20
2023-03-27T01:47:22.618Z,1.37
2023-03-27T01:49:55.323Z,1.13
2023-03-27T01:52:29.416Z,1.30
2023-03-27T01:55:04.873Z,1.33
2023-03-27T01:57:49.397Z,1.37
2023-03-27T02:00:22.355Z,1.40
2023-03-27T02:02:55.140Z,1.30
2023-03-27T02:05:29.156Z,1.10
2023-03-27T02:08:03.992Z,1.80
2023-03-27T02:10:39.257Z,1.37
2023-03-27T02:13:19.781Z,1.50
2023-03-27T02:15:49.603Z,1.60
2023-03-27T02:18:23.697Z,1.20
2023-03-27T02:20:51.807Z,1.50
2023-03-27T02:23:22.872Z,1.27
2023-03-27T02:25:54.304Z,1.50
2023-03-27T02:28:36.504Z,1.27
2023-03-27T02:31:34.144Z,1.33
2023-03-27T02:34:44.099Z,1.40
2023-03-27T02:37:23.168Z,1.17
2023-03-27T02:40:42.067Z,1.17
2023-03-27T02:43:59.084Z,1.20
2023-03-27T02:46:52.824Z,1.30
2023-03-27T02:49:26.324Z,1.23
2023-03-27T02:51:59.736Z,1.37
2023-03-27T02:54:33.433Z,1.30
2023-03-27T02:57:08.147Z,1.70
2023-03-27T03:00:07.419Z,1.40
2023-03-27T03:02:41.311Z,1.57
2023-03-27T03:05:17.910Z,1.40
2023-03-27T03:07:46.474Z,1.80
2023-03-27T03:10:15.859Z,1.70
2023-03-27T03:12:43.937Z,1.77
2023-03-27T03:15:13.971Z,1.50
2023-03-27T03:17:42.319Z,1.80
2023-03-27T03:20:12.322Z,1.37
2023-03-27T03:22:42.037Z,1.60
2023-03-27T03:25:11.626Z,1.20
2023-03-27T03:27:41.346Z,1.50
2023-03-27T03:30:16.893Z,1.63
2023-03-27T03:33:07.461Z,1.60
2023-03-27T03:35:35.832Z,1.60
2023-03-27T03:38:10.990Z,1.60
2023-03-27T03:40:46.844Z,1.80
2023-03-27T03:43:14.977Z,1.83
2023-03-27T03:45:44.411Z,1.47
2023-03-27T03:48:12.579Z,1.07
2023-03-27T03:50:40.754Z,2.03
2023-03-27T03:53:08.847Z,1.10
2023-03-27T03:55:36.909Z,1.57
2023-03-27T03:58:05.451Z,1.30
2023-03-27T04:00:38.430Z,1.10
2023-03-27T04:03:11.728Z,1.53
2023-03-27T04:05:40.064Z,1.80
2023-03-27T04:08:08.310Z,2.40
2023-03-27T04:10:39.030Z,2.50
2023-03-27T04:13:13.838Z,2.60
2023-03-27T04:15:54.016Z,1.93
2023-03-27T04:18:34.977Z,2.20
2023-03-27T04:21:14.169Z,2.07
2023-03-27T04:23:45.507Z,2.50
2023-03-27T04:26:16.817Z,2.70
2023-03-27T04:29:10.259Z,2.80
2023-03-27T04:32:01.375Z,3.27
2023-03-27T04:34:42.978Z,3.43
2023-03-27T04:37:41.757Z,1.63
2023-03-27T04:40:30.162Z,1.27
2023-03-27T04:42:58.426Z,1.33
2023-03-27T04:45:28.834Z,1.60
2023-03-27T04:47:56.974Z,1.60
2023-03-27T04:50:26.889Z,1.47
2023-03-27T04:52:58.765Z,1.53
2023-03-27T04:55:30.431Z,1.40
2023-03-27T04:58:00.144Z,1.50
2023-03-27T05:00:29.231Z,1.23
2023-03-27T05:03:20.297Z,1.30
2023-03-27T05:06:12.602Z,1.03
2023-03-27T05:08:42.419Z,1.20
2023-03-27T05:11:19.894Z,1.10
2023-03-27T05:13:47.989Z,1.40
2023-03-27T05:16:18.765Z,1.13
2023-03-27T05:18:50.350Z,1.57
2023-03-27T05:21:19.849Z,1.03
2023-03-27T05:23:48.347Z,1.13
2023-03-27T05:26:22.524Z,1.23
2023-03-27T05:28:58.465Z,0.93
2023-03-27T05:31:28.002Z,1.10
2023-03-27T05:34:12.693Z,1.23
2023-03-27T05:36:43.602Z,1.40
2023-03-27T05:39:16.834Z,1.50
2023-03-27T05:41:47.367Z,1.10
2023-03-27T05:44:23.566Z,1.17
2023-03-27T05:46:52.319Z,1.50
2023-03-27T05:49:26.595Z,1.10
2023-03-27T05:52:01.857Z,0.90
2023-03-27T05:54:31.332Z,1.30
2023-03-27T05:57:04.704Z,1.17
2023-03-27T05:59:33.266Z,0.80
2023-03-27T06:02:20.528Z,1.40
2023-03-27T06:04:56.220Z,1.30
2023-03-27T06:07:32.638Z,0.90
2023-03-27T06:10:07.546Z,1.47
2023-03-27T06:12:46.406Z,1.40
2023-03-27T06:15:32.363Z,1.67
2023-03-27T06:18:21.025Z,1.30
2023-03-27T06:20:49.378Z,1.00
2023-03-27T06:23:18.915Z,0.90
2023-03-27T06:25:47.613Z,1.20
2023-03-27T06:28:15.838Z,1.00
2023-03-27T06:30:49.972Z,0.80
2023-03-27T06:33:53.860Z,0.70
2023-03-27T06:36:40.946Z,1.03
2023-03-27T06:39:12.320Z,1.10
2023-03-27T06:41:48.351Z,0.90
2023-03-27T06:44:19.304Z,1.07
2023-03-27T06:47:06.190Z,1.20
2023-03-27T06:50:08.782Z,1.10
2023-03-27T06:52:38.048Z,1.20
2023-03-27T06:55:28.198Z,1.30
2023-03-27T06:57:58.024Z,1.60
2023-03-27T07:00:28.949Z,1.30
2023-03-27T07:03:26.377Z,1.17
2023-03-27T07:06:03.284Z,1.33
2023-03-27T07:08:49.957Z,1.10
2023-03-27T07:11:20.623Z,1.27
2023-03-27T07:13:57.034Z,1.37
2023-03-27T07:16:29.526Z,0.93
2023-03-27T07:19:00.272Z,1.33
2023-03-27T07:21:32.492Z,1.57
2023-03-27T07:24:01.594Z,1.60
2023-03-27T07:26:35.559Z,1.57
2023-03-27T07:29:10.865Z,1.40
2023-03-27T07:31:55.354Z,1.13
2023-03-27T07:34:32.667Z,1.10
2023-03-27T07:37:23.961Z,1.20
2023-03-27T07:40:14.300Z,1.47
2023-03-27T07:42:50.042Z,1.30
2023-03-27T07:45:23.908Z,1.40
2023-03-27T07:47:57.168Z,1.30
2023-03-27T07:50:25.718Z,1.20
2023-03-27T07:52:54.054Z,1.30
2023-03-27T07:55:23.064Z,1.30
2023-03-27T07:58:10.655Z,1.37
2023-03-27T08:00:42.759Z,1.30
2023-03-27T08:03:15.129Z,1.63
2023-03-27T08:05:58.231Z,1.30
2023-03-27T08:08:29.603Z,1.50
2023-03-27T08:10:59.641Z,0.90
2023-03-27T08:13:33.117Z,1.77
2023-03-27T08:16:06.704Z,1.00
2023-03-27T08:18:36.462Z,0.63
2023-03-27T08:21:08.287Z,0.70
2023-03-27T08:23:37.905Z,1.07
2023-03-27T08:26:24.368Z,0.97
2023-03-27T08:29:05.538Z,1.10
2023-03-27T08:31:35.194Z,1.07
2023-03-27T08:34:06.051Z,0.93
2023-03-27T08:36:42.541Z,1.20
2023-03-27T08:39:11.186Z,0.83
2023-03-27T08:42:03.894Z,1.00
2023-03-27T08:44:38.421Z,0.60
2023-03-27T08:47:20.650Z,0.80
2023-03-27T08:49:58.486Z,0.60
2023-03-27T08:52:33.983Z,0.50
2023-03-27T08:55:14.530Z,0.50
2023-03-27T08:57:51.367Z,0.70
2023-03-27T09:00:29.345Z,0.50
2023-03-27T09:03:14.714Z,0.50
2023-03-27T09:05:45.439Z,0.67
2023-03-27T09:08:24.183Z,0.90
2023-03-27T09:10:59.902Z,0.60
2023-03-27T09:13:40.734Z,0.77
2023-03-27T09:16:18.385Z,0.80
2023-03-27T09:18:53.952Z,0.70
2023-03-27T09:21:36.105Z,0.93
2023-03-27T09:24:16.611Z,1.10
2023-03-27T09:27:18.730Z,1.13
2023-03-27T09:30:05.353Z,0.90
2023-03-27T09:33:05.759Z,0.67
2023-03-27T09:35:38.750Z,0.70
2023-03-27T09:38:22.802Z,1.17
2023-03-27T09:40:56.235Z,0.60
2023-03-27T09:43:31.607Z,0.90
2023-03-27T09:46:02.534Z,0.70
2023-03-27T09:48:37.405Z,0.90
2023-03-27T09:51:36.935Z,0.80
2023-03-27T09:54:07.451Z,0.60
2023-03-27T09:56:41.496Z,0.60
2023-03-27T09:59:19.465Z,0.50
2023-03-27T10:01:48.687Z,0.80
2023-03-27T10:04:21.896Z,0.60
2023-03-27T10:07:01.530Z,0.70
2023-03-27T10:09:42.900Z,0.70
2023-03-27T10:12:19.928Z,0.77
2023-03-27T10:14:52.685Z,1.27
2023-03-27T10:17:29.352Z,0.80
2023-03-27T10:20:13.281Z,0.77
2023-03-27T10:22:44.240Z,0.80
2023-03-27T10:25:19.172Z,0.60
2023-03-27T10:27:54.479Z,0.90
2023-03-27T10:30:36.195Z,0.80
2023-03-27T10:33:34.204Z,1.87
2023-03-27T10:36:37.217Z,1.10
2023-03-27T10:39:13.907Z,0.90
2023-03-27T10:42:06.407Z,1.07
2023-03-27T10:44:38.639Z,1.30
2023-03-27T10:47:16.072Z,0.90
2023-03-27T10:49:48.854Z,1.13
2023-03-27T10:52:38.157Z,0.83
2023-03-27T10:55:44.948Z,0.73
2023-03-27T10:58:24.675Z,0.77
2023-03-27T11:00:58.968Z,1.00
2023-03-27T11:03:34.212Z,1.27
2023-03-27T11:06:10.712Z,0.63
2023-03-27T11:08:53.059Z,1.10
2023-03-27T11:11:29.199Z,0.80
2023-03-27T11:14:02.503Z,0.90
2023-03-27T11:16:36.865Z,0.80
2023-03-27T11:19:31.092Z,0.67
2023-03-27T11:22:26.388Z,1.00
2023-03-27T11:25:02.779Z,0.70
2023-03-27T11:27:36.907Z,0.70
2023-03-27T11:30:26.674Z,0.70
2023-03-27T11:33:16.942Z,0.60
2023-03-27T11:35:50.332Z,0.50
2023-03-27T11:38:51.361Z,0.63
2023-03-27T11:41:21.191Z,0.60
2023-03-27T11:43:49.364Z,0.50
2023-03-27T11:47:00.844Z,0.80
2023-03-27T11:50:01.760Z,0.97
2023-03-27T11:52:42.359Z,0.50
2023-03-27T11:55:24.907Z,0.47
2023-03-27T11:58:12.507Z,0.60
2023-03-27T12:00:53.350Z,0.70
2023-03-27T12:04:09.123Z,0.90
2023-03-27T12:07:09.845Z,0.90
2023-03-27T12:10:01.017Z,0.90
2023-03-27T12:13:28.846Z,0.87
2023-03-27T12:16:22.185Z,0.70
2023-03-27T12:19:17.299Z,0.60
2023-03-27T12:22:22.904Z,0.90
2023-03-27T12:25:14.286Z,0.70
2023-03-27T12:28:01.358Z,0.70
2023-03-27T12:30:51.205Z,0.50
2023-03-27T12:33:36.832Z,0.50
2023-03-27T12:36:08.334Z,0.80
2023-03-27T12:38:41.029Z,0.77
2023-03-27T12:41:20.880Z,0.57
2023-03-27T12:44:04.429Z,0.70
2023-03-27T12:46:39.680Z,0.70
2023-03-27T12:49:47.479Z,0.90
2023-03-27T12:52:25.345Z,0.80
2023-03-27T12:55:32.569Z,1.00
2023-03-27T12:58:33.331Z,0.80
2023-03-27T13:01:41.729Z,0.90
2023-03-27T13:04:49.476Z,0.80
2023-03-27T13:07:24.850Z,1.10
2023-03-27T13:10:22.244Z,0.80
2023-03-27T13:13:13.273Z,0.90
2023-03-27T13:16:03.061Z,1.23
2023-03-27T13:19:01.261Z,1.40
2023-03-27T13:21:38.837Z,0.90
2023-03-27T13:24:30.704Z,1.20
2023-03-27T13:27:13.145Z,1.10
2023-03-27T13:29:42.439Z,0.70
2023-03-27T13:32:41.333Z,1.33
2023-03-27T13:35:34.468Z,1.13
2023-03-27T13:38:04.457Z,0.90
2023-03-27T13:40:44.842Z,1.00
2023-03-27T13:43:23.543Z,0.90
2023-03-27T13:46:01.395Z,1.03
2023-03-27T13:49:04.684Z,1.27
2023-03-27T13:52:02.835Z,0.70
2023-03-27T13:54:49.067Z,0.80
2023-03-27T13:57:31.244Z,0.67
2023-03-27T14:00:22.912Z,0.80
2023-03-27T14:03:41.385Z,0.70
2023-03-27T14:06:40.367Z,1.10
2023-03-27T14:09:17.532Z,1.00
2023-03-27T14:12:20.187Z,0.80
2023-03-27T14:15:13.979Z,0.97
2023-03-27T14:18:01.213Z,1.00
2023-03-27T14:20:31.339Z,1.20
2023-03-27T14:23:05.809Z,0.80
2023-03-27T14:26:00.330Z,0.93
2023-03-27T14:28:34.685Z,0.80
2023-03-27T14:31:08.570Z,0.80
2023-03-27T14:34:03.061Z,0.60
2023-03-27T14:36:35.881Z,0.93
2023-03-27T14:39:16.845Z,1.00
2023-03-27T14:41:53.047Z,0.97
2023-03-27T14:44:23.928Z,1.30
2023-03-27T14:47:01.846Z,0.80
2023-03-27T14:49:35.827Z,1.00
2023-03-27T14:52:09.100Z,1.27
2023-03-27T14:55:03.845Z,0.83
2023-03-27T14:57:36.917Z,1.33
2023-03-27T15:00:16.369Z,1.60
2023-03-27T15:02:48.979Z,1.30
2023-03-27T15:05:19.171Z,1.20
2023-03-27T15:07:52.867Z,1.20
2023-03-27T15:10:52.369Z,1.20
2023-03-27T15:13:41.032Z,1.47
2023-03-27T15:16:21.987Z,0.60
2023-03-27T15:19:00.342Z,0.80
2023-03-27T15:21:39.096Z,0.97
2023-03-27T15:24:10.799Z,0.90
2023-03-27T15:26:40.331Z,1.13
2023-03-27T15:29:13.886Z,0.80
2023-03-27T15:31:45.802Z,0.70
2023-03-27T15:34:23.205Z,0.80
2023-03-27T15:36:56.627Z,1.07
2023-03-27T15:39:26.492Z,0.70
2023-03-27T15:41:57.468Z,0.70
2023-03-27T15:44:31.653Z,1.17
2023-03-27T15:47:01.978Z,1.10
2023-03-27T15:49:32.661Z,1.13
2023-03-27T15:52:21.737Z,1.20
2023-03-27T15:54:58.833Z,1.10
2023-03-27T15:57:29.324Z,0.70
2023-03-27T16:00:01.527Z,1.23
2023-03-27T16:02:30.059Z,0.70
2023-03-27T16:04:59.837Z,0.80
2023-03-27T16:07:32.856Z,0.80
2023-03-27T16:10:05.161Z,0.73
2023-03-27T16:12:35.601Z,0.93
2023-03-27T16:15:08.295Z,0.90
2023-03-27T16:17:44.896Z,0.80
2023-03-27T16:20:35.597Z,0.90
2023-03-27T16:23:04.225Z,1.07
2023-03-27T16:25:33.963Z,1.30
2023-03-27T16:28:02.349Z,1.10
2023-03-27T16:30:32.682Z,1.10
2023-03-27T16:33:01.301Z,1.00
2023-03-27T16:35:31.909Z,1.00
2023-03-27T16:38:01.139Z,1.00
2023-03-27T16:40:29.381Z,1.00
2023-03-27T16:42:58.953Z,1.20
2023-03-27T16:45:27.254Z,1.20
2023-03-27T16:47:55.891Z,1.70
2023-03-27T16:50:26.695Z,0.90
2023-03-27T16:52:54.892Z,1.30
2023-03-27T16:55:23.097Z,1.30
2023-03-27T16:57:52.438Z,1.23
2023-03-27T17:00:22.887Z,1.10
2023-03-27T17:02:51.043Z,1.00
2023-03-27T17:05:19.477Z,1.57
2023-03-27T17:07:48.209Z,1.67
2023-03-27T17:10:17.137Z,1.23
2023-03-27T17:12:45.416Z,1.03
2023-03-27T17:15:15.109Z,1.07
2023-03-27T17:17:45.281Z,1.30
2023-03-27T17:20:13.676Z,1.40
2023-03-27T17:22:41.820Z,1.50
2023-03-27T17:25:11.092Z,1.57
2023-03-27T17:27:39.266Z,1.67
2023-03-27T17:30:08.571Z,1.20
2023-03-27T17:32:36.851Z,1.50
2023-03-27T17:35:07.153Z,1.20
2023-03-27T17:37:36.056Z,1.70
2023-03-27T17:40:06.324Z,1.50
2023-03-27T17:42:34.453Z,1.20
2023-03-27T17:45:02.550Z,1.87
2023-03-27T17:47:30.759Z,1.20
2023-03-27T17:49:58.971Z,1.30
2023-03-27T17:52:28.482Z,1.27
2023-03-27T17:54:58.275Z,1.47
2023-03-27T17:57:29.509Z,2.13
2023-03-27T17:59:57.682Z,1.47
2023-03-27T18:02:26.126Z,1.97
2023-03-27T18:04:54.309Z,1.30
2023-03-27T18:07:24.395Z,1.43
2023-03-27T18:09:53.933Z,1.07
2023-03-27T18:12:25.083Z,1.53
2023-03-27T18:14:53.368Z,1.57
2023-03-27T18:17:21.820Z,1.10
2023-03-27T18:19:50.994Z,1.50
2023-03-27T18:22:21.549Z,1.40
2023-03-27T18:24:49.839Z,1.57
2023-03-27T18:27:19.510Z,1.40
2023-03-27T18:29:47.849Z,1.40
2023-03-27T18:32:15.976Z,2.03
2023-03-27T18:34:44.716Z,1.30
2023-03-27T18:37:12.964Z,1.60
2023-03-27T18:39:41.220Z,1.33
2023-03-27T18:42:09.662Z,1.50
2023-03-27T18:44:41.558Z,1.40
2023-03-27T18:47:09.759Z,1.90
2023-03-27T18:49:38.950Z,1.70
2023-03-27T18:52:07.129Z,1.60
2023-03-27T18:54:37.060Z,1.67
2023-03-27T18:57:06.009Z,1.70
2023-03-27T18:59:34.183Z,2.47
2023-03-27T19:02:03.940Z,1.77
2023-03-27T19:04:32.132Z,2.10
2023-03-27T19:07:01.284Z,2.23
2023-03-27T19:09:40.706Z,1.80
2023-03-27T19:12:12.044Z,1.47
2023-03-27T19:15:02.186Z,1.20
2023-03-27T19:18:08.578Z,1.73
2023-03-27T19:21:13.719Z,1.37
2023-03-27T19:23:49.759Z,1.60
2023-03-27T19:26:23.757Z,2.10
2023-03-27T19:28:52.822Z,1.70
2023-03-27T19:31:21.591Z,1.80
2023-03-27T19:33:51.096Z,1.40
2023-03-27T19:36:21.850Z,1.40
2023-03-27T19:38:50.016Z,1.77
2023-03-27T19:41:18.661Z,1.50
2023-03-27T19:43:46.860Z,1.63
2023-03-27T19:46:16.706Z,1.73
2023-03-27T19:48:45.279Z,2.10
2023-03-27T19:51:23.053Z,1.60
2023-03-27T19:53:52.933Z,1.70
2023-03-27T19:56:25.935Z,1.67
2023-03-27T19:58:56.137Z,1.23
2023-03-27T20:01:28.258Z,2.37
2023-03-27T20:03:57.600Z,1.90
2023-03-27T20:06:28.870Z,1.70
2023-03-27T20:08:57.756Z,1.00
2023-03-27T20:11:27.051Z,1.10
2023-03-27T20:13:58.296Z,1.50
2023-03-27T20:16:30.962Z,1.00
2023-03-27T20:19:04.819Z,1.17
2023-03-27T20:21:36.204Z,1.53
2023-03-27T20:24:09.698Z,1.70
2023-03-27T20:26:41.551Z,1.87
2023-03-27T20:29:18.598Z,1.50
2023-03-27T20:31:48.042Z,1.30
2023-03-27T20:34:19.941Z,1.43
2023-03-27T20:36:53.239Z,1.60
2023-03-27T20:39:50.858Z,1.57
2023-03-27T20:42:23.161Z,1.90
2023-03-27T20:44:55.098Z,1.87
2023-03-27T20:47:23.506Z,2.67
2023-03-27T20:49:51.780Z,2.03
2023-03-27T20:52:22.804Z,1.90
2023-03-27T20:54:51.464Z,1.20
2023-03-27T20:57:22.612Z,2.03
2023-03-27T20:59:51.227Z,1.83
2023-03-27T21:02:23.062Z,2.20
2023-03-27T21:04:51.361Z,2.67
2023-03-27T21:07:20.804Z,1.73
2023-03-27T21:09:48.872Z,2.00
2023-03-27T21:12:16.931Z,1.80
2023-03-27T21:14:45.041Z,1.60
2023-03-27T21:17:13.930Z,2.40
2023-03-27T21:19:41.986Z,2.13
2023-03-27T21:22:10.305Z,1.83
2023-03-27T21:24:42.124Z,1.87
2023-03-27T21:27:10.338Z,1.70
2023-03-27T21:29:38.674Z,2.23
2023-03-27T21:32:07.668Z,1.63
2023-03-27T21:34:35.848Z,1.33
2023-03-27T21:37:04.019Z,1.97
2023-03-27T21:39:32.399Z,1.43
2023-03-27T21:42:01.874Z,1.47
2023-03-27T21:44:32.323Z,1.00
2023-03-27T21:47:00.455Z,1.00
2023-03-27T21:49:28.704Z,0.80
2023-03-27T21:51:56.732Z,0.87
2023-03-27T21:54:24.862Z,0.67
2023-03-27T21:56:53.061Z,1.20
2023-03-27T21:59:22.523Z,0.90
2023-03-27T22:01:50.984Z,0.90
2023-03-27T22:04:21.567Z,1.20
2023-03-27T22:06:50.875Z,1.00
2023-03-27T22:09:19.152Z,1.00
2023-03-27T22:11:47.248Z,0.80
2023-03-27T22:14:15.424Z,1.20
2023-03-27T22:16:45.418Z,1.30
2023-03-27T22:19:13.512Z,0.93
2023-03-27T22:21:41.600Z,1.10
2023-03-27T22:24:09.812Z,1.07
2023-03-27T22:26:40.735Z,1.17
2023-03-27T22:29:09.246Z,0.83
2023-03-27T22:31:38.189Z,1.00
2023-03-27T22:34:08.132Z,1.50
2023-03-27T22:36:36.693Z,1.33
2023-03-27T22:39:06.212Z,1.10
2023-03-27T22:41:34.298Z,1.13
2023-03-27T22:44:02.769Z,0.90
2023-03-27T22:46:31.117Z,1.10
2023-03-27T22:48:59.996Z,0.80
2023-03-27T22:51:32.552Z,1.20
2023-03-27T22:54:00.666Z,0.70
2023-03-27T22:56:28.846Z,0.97
2023-03-27T22:58:56.924Z,1.00
2023-03-27T23:01:25.057Z,1.10
2023-03-27T23:03:53.556Z,1.07
2023-03-27T23:06:23.764Z,1.10
2023-03-27T23:08:53.524Z,0.90
2023-03-27T23:11:21.660Z,1.33
2023-03-27T23:13:50.433Z,1.43
2023-03-27T23:16:18.527Z,1.03
2023-03-27T23:18:46.788Z,1.27
2023-03-27T23:21:16.639Z,1.57
2023-03-27T23:23:45.012Z,1.20
2023-03-27T23:26:14.689Z,1.50
2023-03-27T23:28:43.813Z,1.40
2023-03-27T23:31:14.367Z,1.03
2023-03-27T23:33:44.590Z,1.33
2023-03-27T23:36:14.714Z,1.00
2023-03-27T23:38:43.168Z,1.23
2023-03-27T23:41:12.834Z,0.90
2023-03-27T23:43:42.750Z,1.20
2023-03-27T23:46:11.446Z,1.47
2023-03-27T23:48:40.842Z,1.33
2023-03-27T23:51:10.725Z,1.27
2023-03-27T23:53:39.017Z,1.27
2023-03-27T23:56:07.849Z,0.97
2023-03-27T23:58:38.089Z,1.17
